createdAt,value
2017-09-29T00:01:58.011Z,49.87
2017-09-29T00:07:01.259Z,44.10
2017-09-29T00:12:04.228Z,50.17
2017-09-29T00:17:06.904Z,48.73
2017-09-29T00:22:09.542Z,53.00
2017-09-29T00:27:12.239Z,53.17
2017-09-29T00:32:15.689Z,54.27
2017-09-29T00:37:18.410Z,58.07
2017-09-29T00:42:20.503Z,54.67
2017-09-29T00:47:23.230Z,60.03
2017-09-29T00:52:25.812Z,59.73
2017-09-29T00:57:28.551Z,50.70
2017-09-29T01:02:31.266Z,59.50
2017-09-29T01:07:34.027Z,50.63
2017-09-29T01:12:36.112Z,57.87
2017-09-29T01:17:38.854Z,64.80
2017-09-29T01:22:41.670Z,66.10
2017-09-29T01:27:44.175Z,54.60
2017-09-29T01:32:46.805Z,49.03
2017-09-29T01:37:49.483Z,53.00
2017-09-29T01:42:52.299Z,58.67
2017-09-29T01:47:55.151Z,55.13
2017-09-29T01:52:57.897Z,44.83
2017-09-29T01:58:00.669Z,45.27
2017-09-29T02:03:03.442Z,55.70
2017-09-29T02:08:06.328Z,63.23
2017-09-29T02:13:09.830Z,70.87
2017-09-29T02:18:12.699Z,57.10
2017-09-29T02:23:15.906Z,46.83
2017-09-29T02:28:18.586Z,43.60
2017-09-29T02:33:21.358Z,47.93
2017-09-29T02:38:23.710Z,48.70
2017-09-29T02:43:26.218Z,48.70
2017-09-29T02:48:29.437Z,48.83
2017-09-29T02:53:31.813Z,51.23
2017-09-29T02:58:37.473Z,46.30
2017-09-29T03:03:41.307Z,47.67
2017-09-29T03:08:44.156Z,46.17
2017-09-29T03:13:46.583Z,43.90
2017-09-29T03:18:49.087Z,44.10
2017-09-29T03:23:51.424Z,49.43
2017-09-29T03:28:54.944Z,48.17
2017-09-29T03:34:02.059Z,51.77
2017-09-29T03:39:05.070Z,52.03
2017-09-29T03:44:09.460Z,54.20
2017-09-29T03:49:12.011Z,52.47
2017-09-29T03:54:18.418Z,51.30
2017-09-29T03:59:22.902Z,55.93
2017-09-29T04:04:25.243Z,52.00
2017-09-29T04:09:27.979Z,49.47
2017-09-29T04:14:30.330Z,41.00
2017-09-29T04:19:33.791Z,44.40
2017-09-29T04:24:41.601Z,44.50
2017-09-29T04:29:49.218Z,42.77
2017-09-29T04:34:55.450Z,41.77
2017-09-29T04:40:00.542Z,42.70
2017-09-29T04:45:02.756Z,40.70
2017-09-29T04:50:05.310Z,45.50
2017-09-29T04:55:07.575Z,45.83
2017-09-29T05:00:10.167Z,44.87
2017-09-29T05:05:12.909Z,42.10
2017-09-29T05:10:15.449Z,38.03
2017-09-29T05:15:17.975Z,47.37
2017-09-29T05:20:21.389Z,48.17
2017-09-29T05:25:24.039Z,47.20
2017-09-29T05:30:26.457Z,39.60
2017-09-29T05:35:29.469Z,39.90
2017-09-29T05:40:32.023Z,34.87
2017-09-29T05:45:34.935Z,36.70
2017-09-29T05:50:37.536Z,35.87
2017-09-29T05:55:40.818Z,30.50
2017-09-29T06:00:43.132Z,29.73
2017-09-29T06:05:45.765Z,29.90
2017-09-29T06:10:48.383Z,31.63
2017-09-29T06:15:50.710Z,34.10
2017-09-29T06:20:52.980Z,35.90
2017-09-29T06:25:55.684Z,31.17
2017-09-29T06:30:59.129Z,29.07
2017-09-29T06:36:01.660Z,32.87
2017-09-29T06:41:04.360Z,34.40
2017-09-29T06:46:07.148Z,35.50
2017-09-29T06:51:10.437Z,33.00
2017-09-29T06:56:13.008Z,33.70
2017-09-29T07:01:15.660Z,36.60
2017-09-29T07:06:18.811Z,36.20
2017-09-29T07:11:21.521Z,43.03
2017-09-29T07:16:23.819Z,40.97
2017-09-29T07:21:26.317Z,43.17
2017-09-29T07:26:35.505Z,36.17
2017-09-29T07:31:40.238Z,34.20
2017-09-29T07:36:43.217Z,38.23
2017-09-29T07:41:45.722Z,38.13
2017-09-29T07:46:48.499Z,29.20
2017-09-29T07:51:53.759Z,36.03
2017-09-29T07:56:56.483Z,34.87
2017-09-29T08:01:59.339Z,32.23
2017-09-29T08:07:01.939Z,36.13
2017-09-29T08:12:05.270Z,37.07
2017-09-29T08:17:07.978Z,33.60
2017-09-29T08:22:10.569Z,35.37
2017-09-29T08:27:13.186Z,32.67
2017-09-29T08:32:15.636Z,33.00
2017-09-29T08:37:18.320Z,31.57
2017-09-29T08:42:21.013Z,31.50
2017-09-29T08:47:23.426Z,31.87
2017-09-29T08:52:26.860Z,25.63
2017-09-29T08:57:29.500Z,27.27
2017-09-29T09:02:32.111Z,28.00
2017-09-29T09:07:34.635Z,27.80
2017-09-29T09:12:37.200Z,27.97
2017-09-29T09:17:39.791Z,26.60
2017-09-29T09:22:42.369Z,27.20
2017-09-29T09:27:44.935Z,26.70
2017-09-29T09:32:48.279Z,25.90
2017-09-29T09:37:51.023Z,25.03
2017-09-29T09:42:53.606Z,24.23
2017-09-29T09:47:56.105Z,24.43
2017-09-29T09:52:59.388Z,24.40
2017-09-29T09:58:02.052Z,23.73
2017-09-29T10:03:04.340Z,24.97
2017-09-29T10:08:06.922Z,23.30
2017-09-29T10:13:09.462Z,23.73
2017-09-29T10:18:11.689Z,22.03
2017-09-29T10:23:14.242Z,23.37
2017-09-29T10:28:17.612Z,21.53
2017-09-29T10:33:20.231Z,23.17
2017-09-29T10:38:23.325Z,23.50
2017-09-29T10:43:26.538Z,23.33
2017-09-29T10:48:29.458Z,24.40
2017-09-29T10:53:31.962Z,21.77
2017-09-29T10:58:34.614Z,21.43
2017-09-29T11:03:38.064Z,22.83
2017-09-29T11:08:40.592Z,24.60
2017-09-29T11:13:43.323Z,21.83
2017-09-29T11:18:45.945Z,22.37
2017-09-29T11:23:49.641Z,21.90
2017-09-29T11:28:51.994Z,22.17
2017-09-29T11:33:55.641Z,23.67
2017-09-29T11:38:58.887Z,22.17
2017-09-29T11:44:02.047Z,20.80
2017-09-29T11:49:04.934Z,20.63
2017-09-29T11:54:08.339Z,20.83
2017-09-29T11:59:11.777Z,20.93
2017-09-29T12:04:14.068Z,19.03
2017-09-29T12:09:20.247Z,18.93
2017-09-29T12:14:25.752Z,15.17
2017-09-29T12:19:28.383Z,17.33
2017-09-29T12:24:30.971Z,14.57
2017-09-29T12:29:33.448Z,13.67
2017-09-29T12:34:36.100Z,12.43
2017-09-29T12:39:40.109Z,14.70
2017-09-29T12:44:42.792Z,11.97
2017-09-29T12:49:45.125Z,10.50
2017-09-29T12:54:47.618Z,11.50
2017-09-29T12:59:50.002Z,10.20
2017-09-29T13:04:53.676Z,12.47
2017-09-29T13:09:56.382Z,12.17
2017-09-29T13:14:58.982Z,9.33
2017-09-29T13:20:01.786Z,7.87
2017-09-29T13:25:23.680Z,9.93
2017-09-29T13:30:26.285Z,9.80
2017-09-29T13:35:28.952Z,8.40
2017-09-29T13:40:31.705Z,8.17
2017-09-29T13:45:34.187Z,6.60
2017-09-29T13:50:36.747Z,6.90
2017-09-29T13:55:39.372Z,7.20
2017-09-29T14:00:42.068Z,6.83
2017-09-29T14:05:44.559Z,6.67
2017-09-29T14:10:47.014Z,8.73
2017-09-29T14:15:49.648Z,7.17
2017-09-29T14:20:51.689Z,8.60
2017-09-29T14:25:54.002Z,6.77
2017-09-29T14:30:56.548Z,5.83
2017-09-29T14:36:00.217Z,5.43
2017-09-29T14:41:09.387Z,7.00
2017-09-29T14:46:12.459Z,7.27
2017-09-29T14:51:15.121Z,7.20
2017-09-29T14:56:17.484Z,8.50
2017-09-29T15:01:20.121Z,8.73
2017-09-29T15:06:23.494Z,7.03
2017-09-29T15:11:26.954Z,6.90
2017-09-29T15:16:29.605Z,7.63
2017-09-29T15:21:31.806Z,7.13
2017-09-29T15:26:34.074Z,6.77
2017-09-29T15:31:36.440Z,7.03
2017-09-29T15:36:39.658Z,7.90
2017-09-29T15:41:44.131Z,6.80
2017-09-29T15:46:46.255Z,8.53
2017-09-29T15:51:48.924Z,7.00
2017-09-29T15:56:51.092Z,7.83
2017-09-29T16:01:54.472Z,8.90
2017-09-29T16:06:57.327Z,7.63
2017-09-29T16:12:00.637Z,9.40
2017-09-29T16:17:03.284Z,8.60
2017-09-29T16:22:07.123Z,8.30
2017-09-29T16:27:09.469Z,7.67
2017-09-29T16:32:12.110Z,7.70
2017-09-29T16:37:14.365Z,8.27
2017-09-29T16:42:17.004Z,6.73
2017-09-29T16:47:19.482Z,8.77
2017-09-29T16:52:22.133Z,9.87
2017-09-29T16:57:25.596Z,11.90
2017-09-29T17:02:31.039Z,12.77
2017-09-29T17:07:35.235Z,10.87
2017-09-29T17:12:39.897Z,11.30
2017-09-29T17:17:43.467Z,10.80
2017-09-29T17:22:46.009Z,13.70
2017-09-29T17:27:50.061Z,12.43
2017-09-29T17:32:52.482Z,10.87
2017-09-29T17:37:55.125Z,11.30
2017-09-29T17:42:57.858Z,11.10
2017-09-29T17:48:00.461Z,10.17
2017-09-29T17:53:03.042Z,11.43
2017-09-29T17:58:05.708Z,12.20
2017-09-29T18:03:08.338Z,11.27
2017-09-29T18:08:11.499Z,11.10
2017-09-29T18:13:13.908Z,11.00
2017-09-29T18:18:16.001Z,11.20
2017-09-29T18:23:19.297Z,11.37
2017-09-29T18:28:21.978Z,10.80
2017-09-29T18:33:24.459Z,10.87
2017-09-29T18:38:27.380Z,11.27
2017-09-29T18:43:35.464Z,11.27
2017-09-29T18:48:38.773Z,12.10
2017-09-29T18:53:41.422Z,13.40
2017-09-29T18:58:47.991Z,15.03
2017-09-29T19:03:53.856Z,10.13
2017-09-29T19:08:57.894Z,10.97
2017-09-29T19:14:03.056Z,14.63
2017-09-29T19:19:07.686Z,12.93
2017-09-29T19:24:13.080Z,19.40
2017-09-29T19:29:17.126Z,21.77
2017-09-29T19:34:22.747Z,25.17
2017-09-29T19:39:28.509Z,25.57
2017-09-29T19:44:34.484Z,26.57
2017-09-29T19:49:38.788Z,23.50
2017-09-29T19:54:41.588Z,20.40
2017-09-29T19:59:44.987Z,17.10
2017-09-29T20:04:48.874Z,23.00
2017-09-29T20:09:56.786Z,37.40
2017-09-29T20:15:02.757Z,26.83
2017-09-29T20:20:06.222Z,16.63
2017-09-29T20:25:11.104Z,22.00
2017-09-29T20:30:18.568Z,24.13
2017-09-29T20:35:26.804Z,16.80
2017-09-29T20:40:33.108Z,13.70
2017-09-29T20:45:37.733Z,14.37
2017-09-29T20:50:41.830Z,13.57
2017-09-29T20:55:46.184Z,13.57
2017-09-29T21:00:50.703Z,12.57
2017-09-29T21:05:54.508Z,13.33
2017-09-29T21:11:01.472Z,12.70
2017-09-29T21:16:09.331Z,12.47
2017-09-29T21:21:15.262Z,13.90
2017-09-29T21:26:24.409Z,13.37
2017-09-29T21:31:30.871Z,13.60
2017-09-29T21:36:36.889Z,13.70
2017-09-29T21:41:44.337Z,12.17
2017-09-29T21:46:51.697Z,12.57
2017-09-29T21:51:55.305Z,13.50
2017-09-29T21:57:01.357Z,12.13
2017-09-29T22:02:07.905Z,12.40
2017-09-29T22:07:12.411Z,12.33
2017-09-29T22:12:16.449Z,12.83
2017-09-29T22:17:23.480Z,13.63
2017-09-29T22:22:27.760Z,12.50
2017-09-29T22:27:34.437Z,13.97
2017-09-29T22:32:43.209Z,13.90
2017-09-29T22:37:47.363Z,13.23
2017-09-29T22:42:56.606Z,13.27
2017-09-29T22:48:06.392Z,14.33
2017-09-29T22:53:09.566Z,12.60
2017-09-29T22:58:17.592Z,14.80
2017-09-29T23:03:26.651Z,13.47
2017-09-29T23:08:30.344Z,13.10
2017-09-29T23:13:33.523Z,13.23
2017-09-29T23:18:40.804Z,13.77
2017-09-29T23:23:44.089Z,13.70
2017-09-29T23:28:50.813Z,13.20
2017-09-29T23:33:57.160Z,13.00
2017-09-29T23:39:05.326Z,15.00
2017-09-29T23:44:08.492Z,13.97
2017-09-29T23:49:15.045Z,14.13
2017-09-29T23:54:23.803Z,14.83
2017-09-29T23:59:28.708Z,15.53
